Flight Track Log - Related Links

Times and Time Zones

All times are in EDT time to prevent confusion due to time zone crossing. See the N3746H flight status page for this flight to view local times or setup timezone preferences in your user account.

Time Position Orientation Groundspeed Altitude Reporting Facility
EDT Latitude Longitude Course Direction KTS MPH feet Rate Location/Type
Wed 06:08:00 PM 18.5573 -66.0209 351° North  Level FlightAware Approximate
Wed 06:09:00 PM 18.6753 -66.0398 351° North  Level FlightAware Approximate
Wed 06:09:23 PM 18.4333 -65.9667 351° North 190 219 1,400  Level San Juan Center
Wed 06:10:00 PM 18.7933 -66.0587 351° North  Level FlightAware Approximate
Wed 06:10:23 PM 18.5000 -65.9500 13° North 260 299 3,400  Level San Juan Center
Wed 06:11:00 PM 18.9113 -66.0776 351° North  Level FlightAware Approximate
Wed 06:11:23 PM 18.5667 -65.9500 360° North 270 311 6,900  Level San Juan Center
Wed 06:12:00 PM 19.0293 -66.0966 351° North  Level FlightAware Approximate
Wed 06:12:24 PM 18.6500 -65.9500 360° North 280 322 9,800  Level San Juan Center
Wed 06:13:00 PM 19.1472 -66.1156 351° North  Level FlightAware Approximate
Wed 06:13:24 PM 18.7333 -65.9667 349° North 330 380 11,200  Level San Juan Center
Wed 06:14:00 PM 19.2652 -66.1346 351° North  Level FlightAware Approximate
Wed 06:14:24 PM 18.8333 -65.9667 360° North 350 403 14,000  Level San Juan Center
Wed 06:15:24 PM 18.9333 -65.9667 360° North 360 414 16,500 2,331 Climbing San Juan Center
Wed 06:16:25 PM 19.0333 -65.9667 360° North 380 437 18,700 2,033 Climbing San Juan Center
Wed 06:17:25 PM 19.1500 -65.9667 360° North 400 460 20,600 1,900 Climbing San Juan Center
Wed 06:18:25 PM 19.2667 -65.9833 352° North 400 460 22,500 1,785 Climbing San Juan Center
Wed 06:19:26 PM 19.3833 -65.9833 360° North 410 472 24,200 1,587 Climbing San Juan Center
Wed 06:20:26 PM 19.5000 -65.9833 360° North 430 495 25,700 1,400 Climbing San Juan Center
Wed 06:21:26 PM 19.6167 -65.9833 360° North 440 506 27,000 1,240 Climbing San Juan Center
Wed 06:22:27 PM 19.7500 -65.9833 360° North 450 518 28,200 1,140 Climbing San Juan Center
Wed 06:23:27 PM 19.8667 -66.0000 352° North 460 529 29,300 1,250 Climbing San Juan Center
Wed 06:24:27 PM 20.0000 -66.0000 360° North 460 529 30,700 1,850 Climbing San Juan Center
Wed 06:25:27 PM 20.1333 -66.0000 360° North 450 518 33,000 1,686 Climbing San Juan Center
Wed 06:26:28 PM 20.2500 -66.0000 360° North 440 506 34,100 843 Climbing San Juan Center
Wed 06:27:28 PM 20.3667 -66.0000 360° North 440 506 34,700 950 Climbing San Juan Center
Wed 06:28:28 PM 20.5000 -66.0167 353° North 440 506 36,000 645 Climbing San Juan Center
Wed 06:29:29 PM 20.6167 -66.0167 360° North 430 495 36,000  Level San Juan Center
Wed 06:30:29 PM 20.7333 -66.0167 360° North 430 495 36,000  Level San Juan Center
Wed 06:31:29 PM 20.8667 -66.0167 360° North 440 506 36,000  Level San Juan Center
Wed 06:32:30 PM 20.9833 -66.0167 360° North 430 495 36,000  Level San Juan Center
Wed 06:33:30 PM 21.1000 -66.0167 360° North 450 518 36,000  Level San Juan Center
Wed 06:34:30 PM 21.2167 -66.0333 352° North 430 495 36,000  Level San Juan Center
Wed 06:35:31 PM 21.3500 -66.0333 360° North 440 506 36,000  Level San Juan Center
Wed 06:36:31 PM 21.4667 -66.0333 360° North 430 495 36,000  Level San Juan Center
Wed 06:37:31 PM 21.5833 -66.0500 352° North 430 495 36,000  Level San Juan Center
Wed 06:38:32 PM 21.7000 -66.0500 360° North 430 495 36,000  Level San Juan Center
Wed 06:40:00 PM 21.8675 -66.0402 North  Level FlightAware Approximate
Wed 06:41:27 PM 22.0500 -66.0667 343° North 413 475 36,000  Level New York Oceanic (ODAPS)
Wed 06:47:00 PM 22.7001 -66.2788 343° North 413 475 36,000  Level FlightAware Transoceanic
Wed 06:48:00 PM 22.8084 -66.3144 343° North 413 475 36,000  Level FlightAware Transoceanic
Wed 06:49:00 PM 22.9167 -66.3500 349° North 413 475 36,000  Level FlightAware Transoceanic
Wed 06:49:28 PM 22.9167 -66.3500 349° North 446 513 36,000  Level New York Oceanic (ODAPS)
Wed 06:50:00 PM 23.0393 -66.3756 349° North 413 475 36,000  Level FlightAware Transoceanic
Wed 06:51:00 PM 23.1619 -66.4013 349° North 413 475 36,000  Level FlightAware Transoceanic
Wed 06:52:00 PM 23.2845 -66.4270 349° North 413 475 36,000  Level FlightAware Transoceanic
Wed 06:53:00 PM 23.4071 -66.4528 349° North 413 475 36,000  Level FlightAware Transoceanic
Wed 06:54:00 PM 23.5297 -66.4786 349° North 413 475 36,000  Level FlightAware Transoceanic
Wed 06:55:00 PM 23.6523 -66.5045 349° North 446 513 36,000  Level FlightAware Transoceanic
Wed 06:56:00 PM 23.7749 -66.5304 349° North 446 513 36,000  Level FlightAware Transoceanic
Wed 06:57:00 PM 23.8975 -66.5564 349° North 446 513 36,000  Level FlightAware Transoceanic
Wed 06:58:00 PM 24.0201 -66.5824 349° North 446 513 36,000  Level FlightAware Transoceanic
Wed 06:59:00 PM 24.1427 -66.6085 349° North 446 513 36,000  Level FlightAware Transoceanic
Wed 07:00:00 PM 24.2653 -66.6346 349° North 446 513 36,000  Level FlightAware Transoceanic
Wed 07:01:00 PM 24.3879 -66.6608 349° North 446 513 36,000  Level FlightAware Transoceanic
Wed 07:02:00 PM 24.5104 -66.6870 349° North 446 513 36,000  Level FlightAware Transoceanic
Wed 07:03:00 PM 24.6330 -66.7132 349° North 446 513 36,000  Level FlightAware Transoceanic
Wed 07:04:00 PM 24.7556 -66.7396 349° North 446 513 36,000  Level FlightAware Transoceanic
Wed 07:05:00 PM 24.8781 -66.7659 349° North 446 513 36,000  Level FlightAware Transoceanic
Wed 07:06:00 PM 25.0007 -66.7924 349° North 446 513 36,000  Level FlightAware Transoceanic
Wed 07:07:00 PM 25.1232 -66.8188 349° North 446 513 36,000  Level FlightAware Transoceanic
Wed 07:08:00 PM 25.2458 -66.8454 349° North 446 513 36,000  Level FlightAware Transoceanic
Wed 07:09:00 PM 25.3683 -66.8720 349° North 446 513 36,000  Level FlightAware Transoceanic
Wed 07:10:00 PM 25.4908 -66.8986 349° North 446 513 36,000  Level FlightAware Transoceanic
Wed 07:11:00 PM 25.6134 -66.9253 349° North 446 513 36,000  Level FlightAware Transoceanic
Wed 07:12:00 PM 25.7359 -66.9520 349° North 446 513 36,000  Level FlightAware Transoceanic
Wed 07:13:00 PM 25.8584 -66.9788 349° North 446 513 36,000  Level FlightAware Transoceanic
Wed 07:14:00 PM 25.9809 -67.0057 349° North 446 513 36,000  Level FlightAware Transoceanic
Wed 07:15:00 PM 26.1034 -67.0326 349° North 446 513 36,000  Level FlightAware Transoceanic
Wed 07:16:00 PM 26.2259 -67.0596 349° North 446 513 36,000  Level FlightAware Transoceanic
Wed 07:17:00 PM 26.3484 -67.0866 349° North 446 513 36,000  Level FlightAware Transoceanic
Wed 07:18:00 PM 26.4709 -67.1137 349° North 446 513 36,000  Level FlightAware Transoceanic
Wed 07:19:00 PM 26.5934 -67.1408 349° North 446 513 36,000  Level FlightAware Transoceanic
Wed 07:20:00 PM 26.7159 -67.1680 349° North 446 513 36,000  Level FlightAware Transoceanic
Wed 07:21:00 PM 26.8384 -67.1953 349° North 446 513 36,000  Level FlightAware Transoceanic
Wed 07:22:00 PM 26.9609 -67.2226 349° North 446 513 36,000  Level FlightAware Transoceanic
Wed 07:23:00 PM 27.0833 -67.2500 349° North 446 513 36,000  Level FlightAware Transoceanic
Wed 07:23:46 PM 27.0833 -67.2500 349° North 438 504 36,000  Level New York Oceanic (ODAPS)
Wed 07:24:00 PM 27.2068 -67.2770 349° North 446 513 36,000  Level FlightAware Transoceanic
Wed 07:25:00 PM 27.3302 -67.3040 349° North 446 513 36,000  Level FlightAware Transoceanic
Wed 07:26:00 PM 27.4536 -67.3311 349° North 446 513 36,000  Level FlightAware Transoceanic
Wed 07:27:00 PM 27.5770 -67.3583 349° North 446 513 36,000  Level FlightAware Transoceanic
Wed 07:28:00 PM 27.7004 -67.3856 349° North 446 513 36,000  Level FlightAware Transoceanic
Wed 07:29:00 PM 27.8033 -67.4083 349° North 438 504 36,000  Level FlightAware Transoceanic
Wed 07:30:00 PM 27.9232 -67.4349 349° North 438 504 36,000  Level FlightAware Transoceanic
Wed 07:31:00 PM 28.0432 -67.4615 349° North 438 504 36,000  Level FlightAware Transoceanic
Wed 07:32:00 PM 28.1632 -67.4882 349° North 438 504 36,000  Level FlightAware Transoceanic
Wed 07:33:00 PM 28.2831 -67.5150 349° North 438 504 36,000  Level FlightAware Transoceanic
Wed 07:34:00 PM 28.4031 -67.5418 349° North 438 504 36,000  Level FlightAware Transoceanic
Wed 07:35:00 PM 28.5230 -67.5687 349° North 438 504 36,000  Level FlightAware Transoceanic
Wed 07:36:00 PM 28.6430 -67.5956 349° North 438 504 36,000  Level FlightAware Transoceanic
Wed 07:37:00 PM 28.7629 -67.6226 349° North 438 504 36,000  Level FlightAware Transoceanic
Wed 07:38:00 PM 28.8828 -67.6497 349° North 438 504 36,000  Level FlightAware Transoceanic
Wed 07:39:00 PM 29.0027 -67.6768 349° North 438 504 36,000  Level FlightAware Transoceanic
Wed 07:40:00 PM 29.1227 -67.7040 349° North 438 504 36,000  Level FlightAware Transoceanic
Wed 07:41:00 PM 29.2426 -67.7313 349° North 438 504 36,000  Level FlightAware Transoceanic
Wed 07:42:00 PM 29.3625 -67.7586 349° North 438 504 36,000  Level FlightAware Transoceanic
Wed 07:43:00 PM 29.4824 -67.7860 349° North 438 504 36,000  Level FlightAware Transoceanic
Wed 07:44:00 PM 29.6023 -67.8135 349° North 438 504 36,000  Level FlightAware Transoceanic
Wed 07:45:00 PM 29.7222 -67.8410 349° North 438 504 36,000  Level FlightAware Transoceanic
Wed 07:46:00 PM 29.8420 -67.8686 349° North 438 504 36,000  Level FlightAware Transoceanic
Wed 07:47:00 PM 29.9619 -67.8962 349° North 438 504 36,000  Level FlightAware Transoceanic
Wed 07:48:00 PM 30.0818 -67.9239 349° North 438 504 36,000  Level FlightAware Transoceanic
Wed 07:49:00 PM 30.2017 -67.9517 349° North 438 504 36,000  Level FlightAware Transoceanic
Wed 07:50:00 PM 30.3215 -67.9796 349° North 438 504 36,000  Level FlightAware Transoceanic
Wed 07:51:00 PM 30.4414 -68.0075 349° North 438 504 36,000  Level FlightAware Transoceanic
Wed 07:52:00 PM 30.5612 -68.0355 349° North 438 504 36,000  Level FlightAware Transoceanic
Wed 07:53:00 PM 30.6811 -68.0635 349° North 438 504 36,000  Level FlightAware Transoceanic
Wed 07:54:00 PM 30.8009 -68.0916 349° North 438 504 36,000  Level FlightAware Transoceanic
Wed 07:55:00 PM 30.9207 -68.1198 349° North 438 504 36,000  Level FlightAware Transoceanic
Wed 07:56:00 PM 31.0406 -68.1481 349° North 438 504 36,000  Level FlightAware Transoceanic
Wed 07:57:00 PM 31.1604 -68.1764 349° North 438 504 36,000  Level FlightAware Transoceanic
Wed 07:58:00 PM 31.2802 -68.2048 349° North 438 504 36,000  Level FlightAware Transoceanic
Wed 07:59:00 PM 31.4000 -68.2333 348° North 438 504 36,000  Level FlightAware Transoceanic
Wed 08:00:00 PM 31.5182 -68.2622 348° North 438 504 36,000  Level FlightAware Transoceanic
Wed 08:00:12 PM 31.4000 -68.2333 348° North 431 496 36,000  Level New York Oceanic (ODAPS)
Wed 08:01:00 PM 31.6364 -68.2911 348° North 438 504 36,000  Level FlightAware Transoceanic
Wed 08:02:00 PM 31.7546 -68.3202 348° North 438 504 36,000  Level FlightAware Transoceanic
Wed 08:03:00 PM 31.8727 -68.3492 348° North 438 504 36,000  Level FlightAware Transoceanic
Wed 08:04:00 PM 31.9909 -68.3784 348° North 438 504 36,000  Level FlightAware Transoceanic
Wed 08:05:00 PM 32.1091 -68.4076 348° North 438 504 36,000  Level FlightAware Transoceanic
Wed 08:06:00 PM 32.2272 -68.4369 348° North 431 496 36,000  Level FlightAware Transoceanic
Wed 08:07:00 PM 32.3453 -68.4663 348° North 431 496 36,000  Level FlightAware Transoceanic
Wed 08:08:00 PM 32.4635 -68.4958 348° North 431 496 36,000  Level FlightAware Transoceanic
Wed 08:09:00 PM 32.5816 -68.5253 348° North 431 496 36,000  Level FlightAware Transoceanic
Wed 08:10:00 PM 32.6997 -68.5549 348° North 431 496 36,000  Level FlightAware Transoceanic
Wed 08:11:00 PM 32.8178 -68.5846 348° North 431 496 36,000  Level FlightAware Transoceanic
Wed 08:12:00 PM 32.9360 -68.6144 348° North 431 496 36,000  Level FlightAware Transoceanic
Wed 08:13:00 PM 33.0541 -68.6443 348° North 431 496 36,000  Level FlightAware Transoceanic
Wed 08:14:00 PM 33.1722 -68.6742 348° North 431 496 36,000  Level FlightAware Transoceanic
Wed 08:15:00 PM 33.2902 -68.7042 348° North 431 496 36,000  Level FlightAware Transoceanic
Wed 08:16:00 PM 33.4083 -68.7343 348° North 431 496 36,000  Level FlightAware Transoceanic
Wed 08:17:00 PM 33.5264 -68.7645 348° North 431 496 36,000  Level FlightAware Transoceanic
Wed 08:18:00 PM 33.6445 -68.7948 348° North 431 496 36,000  Level FlightAware Transoceanic
Wed 08:19:00 PM 33.7625 -68.8251 348° North 431 496 36,000  Level FlightAware Transoceanic
Wed 08:20:00 PM 33.8806 -68.8556 348° North 431 496 36,000  Level FlightAware Transoceanic
Wed 08:21:00 PM 33.9986 -68.8861 348° North 431 496 36,000  Level FlightAware Transoceanic
Wed 08:22:00 PM 34.1167 -68.9167 348° North 431 496 36,000  Level FlightAware Transoceanic
Wed 08:23:00 PM 34.2339 -68.9470 348° North 431 496 36,000  Level FlightAware Transoceanic
Wed 08:24:00 PM 34.3512 -68.9774 348° North 431 496 36,000  Level FlightAware Transoceanic
Wed 08:25:00 PM 34.4685 -69.0079 348° North 431 496 36,000  Level FlightAware Transoceanic
Wed 08:26:00 PM 34.5857 -69.0385 348° North 431 496 36,000  Level FlightAware Transoceanic
Wed 08:27:00 PM 34.7029 -69.0692 348° North 431 496 36,000  Level FlightAware Transoceanic
Wed 08:28:00 PM 34.8202 -69.1000 348° North 431 496 36,000  Level FlightAware Transoceanic
Wed 08:29:00 PM 34.9374 -69.1308 348° North 431 496 36,000  Level FlightAware Transoceanic
Wed 08:30:00 PM 35.0546 -69.1618 348° North 431 496 36,000  Level FlightAware Transoceanic
Wed 08:31:00 PM 35.1718 -69.1928 348° North 431 496 36,000  Level FlightAware Transoceanic
Wed 08:32:00 PM 35.2890 -69.2239 348° North 431 496 36,000  Level FlightAware Transoceanic
Wed 08:33:00 PM 35.4062 -69.2551 348° North 431 496 36,000  Level FlightAware Transoceanic
Wed 08:34:00 PM 35.5234 -69.2864 348° North 431 496 36,000  Level FlightAware Transoceanic
Wed 08:35:00 PM 35.6406 -69.3178 348° North 431 496 36,000  Level FlightAware Transoceanic
Wed 08:36:00 PM 35.7578 -69.3493 348° North 431 496 36,000  Level FlightAware Transoceanic
Wed 08:37:00 PM 35.8749 -69.3809 348° North 431 496 36,000  Level FlightAware Transoceanic
Wed 08:38:00 PM 35.9921 -69.4125 348° North 431 496 36,000  Level FlightAware Transoceanic
Wed 08:39:00 PM 36.1092 -69.4443 348° North 431 496 36,000  Level FlightAware Transoceanic
Wed 08:40:00 PM 36.2264 -69.4762 348° North 431 496 36,000  Level FlightAware Transoceanic
Wed 08:41:00 PM 36.3435 -69.5081 348° North 431 496 36,000  Level FlightAware Transoceanic
Wed 08:42:00 PM 36.4606 -69.5402 348° North 431 496 36,000  Level FlightAware Transoceanic
Wed 08:43:00 PM 36.5777 -69.5723 348° North 431 496 36,000  Level FlightAware Transoceanic
Wed 08:44:00 PM 36.6948 -69.6046 348° North 431 496 36,000  Level FlightAware Transoceanic
Wed 08:45:00 PM 36.8119 -69.6369 348° North 431 496 36,000  Level FlightAware Transoceanic
Wed 08:46:00 PM 36.9290 -69.6693 347° North 431 496 36,000  Level FlightAware Transoceanic
Wed 08:47:00 PM 37.0461 -69.7019 347° North 431 496 36,000  Level FlightAware Transoceanic
Wed 08:48:00 PM 37.1632 -69.7345 347° North 431 496 36,000  Level FlightAware Transoceanic
Wed 08:49:00 PM 37.2802 -69.7673 347° North 431 496 36,000  Level FlightAware Transoceanic
Wed 08:50:00 PM 37.3973 -69.8001 347° North 431 496 36,000  Level FlightAware Transoceanic
Wed 08:51:00 PM 37.5143 -69.8331 347° North 431 496 36,000  Level FlightAware Transoceanic
Wed 08:52:00 PM 37.6313 -69.8661 347° North 431 496 36,000  Level FlightAware Transoceanic
Wed 08:52:16 PM 37.6194 -69.8178 347° North 440 506 36,000  Level New York Center
Wed 08:53:00 PM 37.7484 -69.8993 347° North 431 496 36,000  Level FlightAware Transoceanic
Wed 08:53:15 PM 37.7344 -69.8506 347° North 429 494 36,000  Level New York Center
Wed 08:54:00 PM 37.8654 -69.9325 347° North 431 496 36,000 -98 Level FlightAware Transoceanic
Wed 08:54:16 PM 37.8372 -69.9097 336° Northwest 414 476 35,900  Descending New York Center
Wed 08:55:00 PM 37.9824 -69.9659 347° North 431 496 36,000 98 Climbing FlightAware Transoceanic
Wed 08:55:17 PM 37.9006 -70.0353 303° West 396 456 36,000  Level New York Center
Wed 08:56:00 PM 38.0994 -69.9994 347° North 431 496 36,000  Level FlightAware Transoceanic
Wed 08:56:15 PM 37.9575 -70.1719 298° West 419 482 36,000  Level New York Center
Wed 08:57:00 PM 38.2164 -70.0330 347° North 431 496 36,000  Level FlightAware Transoceanic
Wed 08:57:17 PM 38.0350 -70.2661 316° Northwest 403 464 36,000  Level New York Center
Wed 08:58:17 PM 38.1125 -70.3661 315° West 391 450 36,000  Level New York Center
Wed 08:59:14 PM 38.1714 -70.4953 300° West 417 480 36,000  Level New York Center
Wed 09:00:15 PM 38.2278 -70.6325 298° West 422 486 36,000  Level New York Center
Wed 09:01:17 PM 38.3050 -70.7278 316° Northwest 408 470 36,000  Level New York Center
Wed 09:02:15 PM 38.3694 -70.8469 305° West 408 470 36,000  Level New York Center
Wed 09:03:15 PM 38.4383 -70.9583 308° West 408 470 36,000  Level New York Center
Wed 09:04:16 PM 38.5025 -71.0778 304° West 403 464 36,000 -443 Level New York Center
Wed 09:05:17 PM 38.5667 -71.1925 306° West 403 464 35,100 -908 Descending New York Center
Wed 09:06:15 PM 38.6308 -71.3150 304° West 409 471 34,200 -908 Descending New York Center
Wed 09:07:16 PM 38.6969 -71.4381 305° West 414 476 33,300 -950 Descending New York Center
Wed 09:08:15 PM 38.7692 -71.5506 309° West 414 476 32,300 -1,150 Descending New York Center
Wed 09:09:16 PM 38.8369 -71.6767 305° West 419 482 31,000 -1,388 Descending New York Center
Wed 09:10:16 PM 38.9089 -71.8031 306° West 425 489 29,500 -1,587 Descending New York Center
Wed 09:11:17 PM 38.9808 -71.9297 306° West 437 503 27,800 -1,700 Descending New York Center
Wed 09:12:16 PM 39.0522 -72.0619 305° West 442 509 26,100 -1,714 Descending New York Center
Wed 09:13:16 PM 39.1175 -72.1861 304° West 442 509 24,400 -1,587 Descending New York Center
Wed 09:14:17 PM 39.1828 -72.3053 305° West 423 487 22,900 -1,339 Descending New York Center
Wed 09:15:17 PM 39.2336 -72.4003 305° West 418 481 21,700 -1,311 Descending New York Center
Wed 09:16:16 PM 39.3047 -72.5253 306° West 405 466 20,300 -1,311 Descending New York Center
Wed 09:17:16 PM 39.3633 -72.6342 305° West 393 452 19,100 -1,200 Descending New York Center
Wed 09:18:16 PM 39.4242 -72.7433 306° West 382 440 17,900 -1,190 Descending New York Center
Wed 09:19:17 PM 39.4806 -72.8500 304° West 372 428 16,700 -1,220 Descending New York Center
Wed 09:20:14 PM 39.5369 -72.9592 304° West 372 428 15,500 -1,109 Descending New York Center
Wed 09:21:16 PM 39.5914 -73.0606 305° West 361 415 14,500 -984 Descending New York Center
Wed 09:22:16 PM 39.6456 -73.1594 305° West 355 409 13,500 -992 Descending New York Center
Wed 09:23:17 PM 39.6978 -73.2583 304° West 355 409 12,500 -1,050 Descending New York Center
Wed 09:24:16 PM 39.7519 -73.3575 305° West 344 396 11,400 -1,109 Descending New York Center
Wed 09:25:16 PM 39.8019 -73.4539 304° West 325 374 10,300 -950 Descending New York Center
Wed 09:26:16 PM 39.8417 -73.5339 303° West 294 338 9,500 -706 Descending New York Center
Wed 09:27:15 PM 39.8858 -73.6086 308° West 271 312 8,900 -250 Descending New York Center
Wed 09:28:16 PM 39.9256 -73.6861 304° West 264 304 9,000 50 Climbing New York Center
Wed 09:29:16 PM 39.9592 -73.7578 301° West 264 304 9,000  Level New York Center
Wed 09:30:15 PM 40.0156 -73.8336 314° West 264 304 9,000  Level New York Center
Wed 09:31:14 PM 40.0772 -73.7819 33° Northeast 206 237 9,000  Level New York Center
Wed 09:32:15 PM 40.1186 -73.7186 49° Northeast 229 264 9,000  Level New York Center
Wed 09:32:40 PM 40.1500 -73.6833 41° Northeast 253 291 9,000 -635 Level New York TRACON
Wed 09:33:40 PM 40.1833 -73.6167 57° Northeast 255 293 8,100 -875 Descending New York TRACON
Wed 09:34:16 PM 40.2114 -73.5814 44° Northeast 256 295 7,600 -1,113 Descending New York Center
Wed 09:35:17 PM 40.2692 -73.5239 37° Northeast 240 276 6,300 -1,140 Descending New York Center
Wed 09:36:17 PM 40.2700 -73.5700 271° West 58 67 5,300 -864 Descending New York Center
Wed 09:37:15 PM 40.2481 -73.6236 242° Southwest 107 123 4,600 -876 Descending New York Center
Wed 09:37:46 PM 40.2500 -73.6500 276° West 164 189 4,000 -987 Descending New York TRACON
Wed 09:38:34 PM 40.2500 -73.7000 270° West 187 215 3,300 -526 Descending New York TRACON
Wed 09:39:40 PM 40.3000 -73.7500 323° Northwest 188 216 3,000 -143 Descending New York TRACON
Wed 09:40:40 PM 40.3333 -73.8000 311° West 193 222 3,000  Level New York TRACON
Wed 09:41:40 PM 40.3667 -73.8500 311° West 195 224 3,000  Level New York TRACON
Wed 09:42:40 PM 40.4167 -73.8833 333° Northwest 192 221 3,000  Level New York TRACON
Wed 09:43:40 PM 40.4500 -73.9333 311° West 193 222 3,000  Level New York TRACON
Wed 09:44:40 PM 40.5000 -73.9833 323° Northwest 193 222 3,000  Level New York TRACON
Wed 09:45:40 PM 40.5500 -74.0000 346° North 220 253 3,000  Level New York TRACON
Wed 09:46:34 PM 40.6000 -74.0000 360° North 221 254 3,000  Level New York TRACON
Wed 09:47:40 PM 40.6667 -74.0167 349° North 211 243 3,000  Level New York TRACON
Wed 09:48:40 PM 40.7333 -74.0000 11° North 219 252 3,000  Level New York TRACON

Login

Don't have an account? Register now (free) for customized features, flight alerts, and more!